createdAt,value
2022-09-23T00:00:22.375Z,9.77
2022-09-23T00:02:56.743Z,9.65
2022-09-23T00:05:32.000Z,9.46
2022-09-23T00:08:06.819Z,9.49
2022-09-23T00:10:42.189Z,9.51
2022-09-23T00:13:16.723Z,9.41
2022-09-23T00:15:50.904Z,9.24
2022-09-23T00:18:25.273Z,9.31
2022-09-23T00:20:59.292Z,9.36
2022-09-23T00:23:34.393Z,9.35
2022-09-23T00:26:12.191Z,9.04
2022-09-23T00:28:49.356Z,9.13
2022-09-23T00:31:25.490Z,9.11
2022-09-23T00:34:01.871Z,9.10
2022-09-23T00:36:35.871Z,8.90
2022-09-23T00:39:10.620Z,8.89
2022-09-23T00:41:46.091Z,8.83
2022-09-23T00:44:44.794Z,9.12
2022-09-23T00:47:23.080Z,9.15
2022-09-23T00:50:04.443Z,8.96
2022-09-23T00:52:39.063Z,8.83
2022-09-23T00:55:17.490Z,8.75
2022-09-23T00:57:56.052Z,8.76
2022-09-23T01:00:30.788Z,8.73
2022-09-23T01:03:06.272Z,8.63
2022-09-23T01:05:41.445Z,8.59
2022-09-23T01:08:16.679Z,8.58
2022-09-23T01:11:02.402Z,8.42
2022-09-23T01:13:48.192Z,8.40
2022-09-23T01:16:31.316Z,8.36
2022-09-23T01:19:18.728Z,8.41
2022-09-23T01:22:01.329Z,8.49
2022-09-23T01:25:08.459Z,8.48
2022-09-23T01:27:58.558Z,8.27
2022-09-23T01:30:44.908Z,8.26
2022-09-23T01:33:26.308Z,8.23
2022-09-23T01:36:13.815Z,8.28
2022-09-23T01:38:58.494Z,8.20
2022-09-23T01:41:51.842Z,8.11
2022-09-23T01:44:34.962Z,8.06
2022-09-23T01:47:15.090Z,8.24
2022-09-23T01:49:56.064Z,8.06
2022-09-23T01:52:33.621Z,8.29
2022-09-23T01:55:12.437Z,8.21
2022-09-23T01:57:52.979Z,7.94
2022-09-23T02:00:32.587Z,7.76
2022-09-23T02:03:14.146Z,7.80
2022-09-23T02:05:51.815Z,7.79
2022-09-23T02:08:31.668Z,7.69
2022-09-23T02:11:10.174Z,7.70
2022-09-23T02:13:51.647Z,8.01
2022-09-23T02:16:31.956Z,8.07
2022-09-23T02:19:12.396Z,8.04
2022-09-23T02:21:52.509Z,7.90
2022-09-23T02:24:31.450Z,7.90
2022-09-23T02:27:18.465Z,7.80
2022-09-23T02:29:58.268Z,7.77
2022-09-23T02:32:35.750Z,7.91
2022-09-23T02:35:19.843Z,7.95
2022-09-23T02:38:07.435Z,8.22
2022-09-23T02:40:50.782Z,8.20
2022-09-23T02:43:32.247Z,8.17
2022-09-23T02:46:08.195Z,8.14
2022-09-23T02:48:47.693Z,8.08
2022-09-23T02:51:25.836Z,8.17
2022-09-23T02:54:00.226Z,8.17
2022-09-23T02:56:35.296Z,8.10
2022-09-23T02:59:14.214Z,8.08
2022-09-23T03:02:14.244Z,7.95
2022-09-23T03:04:55.542Z,7.81
2022-09-23T03:07:40.288Z,7.79
2022-09-23T03:10:22.202Z,7.83
2022-09-23T03:13:12.335Z,7.75
2022-09-23T03:15:53.412Z,7.77
2022-09-23T03:18:35.154Z,7.69
2022-09-23T03:21:12.766Z,7.64
2022-09-23T03:23:49.905Z,7.72
2022-09-23T03:26:28.772Z,7.73
2022-09-23T03:29:05.080Z,7.68
2022-09-23T03:31:42.559Z,7.65
2022-09-23T03:34:22.686Z,7.55
2022-09-23T03:37:01.731Z,7.43
2022-09-23T03:39:41.948Z,7.44
2022-09-23T03:42:21.067Z,7.31
2022-09-23T03:44:57.557Z,7.12
2022-09-23T03:47:32.199Z,7.05
2022-09-23T03:50:07.621Z,6.97
2022-09-23T03:52:41.936Z,7.07
2022-09-23T03:55:18.672Z,7.04
2022-09-23T03:57:52.938Z,6.87
2022-09-23T04:00:27.814Z,6.90
2022-09-23T04:03:02.357Z,6.97
2022-09-23T04:05:36.662Z,7.03
2022-09-23T04:08:11.060Z,7.14
2022-09-23T04:10:46.976Z,7.08
2022-09-23T04:13:22.167Z,6.88
2022-09-23T04:15:56.494Z,7.05
2022-09-23T04:18:31.416Z,7.02
2022-09-23T04:21:05.680Z,7.06
2022-09-23T04:23:39.929Z,7.31
2022-09-23T04:26:16.236Z,7.27
2022-09-23T04:28:50.568Z,7.07
2022-09-23T04:31:24.845Z,7.28
2022-09-23T04:33:59.279Z,7.31
2022-09-23T04:36:33.312Z,7.11
2022-09-23T04:39:07.667Z,6.91
2022-09-23T04:41:43.199Z,6.88
2022-09-23T04:44:17.715Z,6.91
2022-09-23T04:46:51.814Z,6.75
2022-09-23T04:49:26.283Z,6.43
2022-09-23T04:52:00.372Z,6.71
2022-09-23T04:54:34.853Z,9.72
2022-09-23T04:57:11.173Z,10.97
2022-09-23T04:59:46.999Z,11.12
2022-09-23T05:02:21.762Z,10.05
2022-09-23T05:04:56.128Z,9.39
2022-09-23T05:07:30.103Z,8.83
2022-09-23T05:10:04.897Z,8.46
2022-09-23T05:12:40.382Z,8.38
2022-09-23T05:15:17.780Z,8.15
2022-09-23T05:17:51.897Z,8.33
2022-09-23T05:20:26.490Z,8.32
2022-09-23T05:23:00.909Z,8.32
2022-09-23T05:25:38.348Z,8.29
2022-09-23T05:28:15.086Z,8.09
2022-09-23T05:30:49.443Z,8.37
2022-09-23T05:33:23.517Z,8.26
2022-09-23T05:35:57.852Z,8.27
2022-09-23T05:38:35.719Z,8.27
2022-09-23T05:41:13.108Z,8.09
2022-09-23T05:43:48.464Z,7.92
2022-09-23T05:46:25.192Z,8.04
2022-09-23T05:49:02.944Z,7.99
2022-09-23T05:51:37.880Z,10.56
2022-09-23T05:54:11.922Z,11.86
2022-09-23T05:56:46.334Z,11.28
2022-09-23T05:59:21.967Z,10.84
2022-09-23T06:01:56.856Z,10.11
2022-09-23T06:04:31.373Z,9.95
2022-09-23T06:07:05.544Z,9.65
2022-09-23T06:09:40.050Z,9.04
2022-09-23T06:12:14.272Z,11.61
2022-09-23T06:14:50.786Z,12.58
2022-09-23T06:17:24.953Z,12.76
2022-09-23T06:19:59.346Z,10.95
2022-09-23T06:22:36.447Z,10.58
2022-09-23T06:25:13.242Z,9.89
2022-09-23T06:27:55.459Z,9.57
2022-09-23T06:30:31.159Z,9.26
2022-09-23T06:33:05.556Z,9.16
2022-09-23T06:35:40.419Z,9.25
2022-09-23T06:38:14.817Z,9.42
2022-09-23T06:40:51.337Z,9.59
2022-09-23T06:43:27.225Z,9.31
2022-09-23T06:46:04.918Z,9.26
2022-09-23T06:48:42.809Z,9.39
2022-09-23T06:51:20.203Z,9.50
2022-09-23T06:53:54.128Z,9.69
2022-09-23T06:56:28.473Z,9.92
2022-09-23T06:59:02.593Z,10.13
2022-09-23T07:01:41.806Z,10.23
2022-09-23T07:04:16.207Z,10.26
2022-09-23T07:06:50.564Z,10.26
2022-09-23T07:09:24.702Z,10.29
2022-09-23T07:11:59.218Z,10.44
2022-09-23T07:14:33.722Z,10.56
2022-09-23T07:17:09.497Z,10.75
2022-09-23T07:19:44.131Z,10.73
2022-09-23T07:22:18.471Z,10.90
2022-09-23T07:24:54.255Z,10.99
2022-09-23T07:27:29.255Z,10.96
2022-09-23T07:30:03.476Z,11.41
2022-09-23T07:32:48.305Z,11.64
2022-09-23T07:35:23.179Z,11.51
2022-09-23T07:37:57.470Z,11.58
2022-09-23T07:40:31.600Z,11.73
2022-09-23T07:43:06.245Z,11.89
2022-09-23T07:45:43.576Z,11.78
2022-09-23T07:48:19.271Z,11.73
2022-09-23T07:50:53.412Z,11.81
2022-09-23T07:53:27.928Z,12.00
2022-09-23T07:56:04.607Z,12.22
2022-09-23T07:58:38.951Z,12.30
2022-09-23T08:01:13.852Z,12.35
2022-09-23T08:03:49.654Z,12.50
2022-09-23T08:06:23.774Z,12.62
2022-09-23T08:08:59.463Z,12.58
2022-09-23T08:11:33.504Z,12.82
2022-09-23T08:14:08.733Z,12.75
2022-09-23T08:16:44.875Z,12.98
2022-09-23T08:19:20.686Z,13.18
2022-09-23T08:21:55.183Z,13.25
2022-09-23T08:24:32.264Z,13.42
2022-09-23T08:27:06.481Z,13.44
2022-09-23T08:29:41.105Z,13.71
2022-09-23T08:32:15.147Z,13.81
2022-09-23T08:34:50.926Z,13.89
2022-09-23T08:37:25.096Z,13.89
2022-09-23T08:39:59.391Z,14.00
2022-09-23T08:42:35.460Z,14.24
2022-09-23T08:45:16.668Z,14.32
2022-09-23T08:47:55.057Z,14.32
2022-09-23T08:50:37.810Z,14.50
2022-09-23T08:53:20.369Z,14.57
2022-09-23T08:55:56.944Z,14.72
2022-09-23T08:58:51.129Z,15.02
2022-09-23T09:01:32.651Z,14.99
2022-09-23T09:04:19.850Z,15.14
2022-09-23T09:07:24.603Z,15.01
2022-09-23T09:10:02.013Z,15.08
2022-09-23T09:12:43.181Z,15.24
2022-09-23T09:15:20.586Z,15.45
2022-09-23T09:18:02.551Z,15.44
2022-09-23T09:20:42.283Z,15.65
2022-09-23T09:23:23.143Z,15.86
2022-09-23T09:25:58.563Z,15.87
2022-09-23T09:28:40.381Z,16.46
2022-09-23T09:31:25.238Z,16.58
2022-09-23T09:34:06.297Z,16.30
2022-09-23T09:36:47.996Z,16.44
2022-09-23T09:39:26.224Z,16.03
2022-09-23T09:42:00.955Z,16.10
2022-09-23T09:44:41.771Z,16.17
2022-09-23T09:47:28.755Z,16.35
2022-09-23T09:50:07.760Z,16.22
2022-09-23T09:52:43.140Z,16.43
2022-09-23T09:55:27.760Z,16.27
2022-09-23T09:58:05.908Z,16.45
2022-09-23T10:00:46.240Z,16.42
2022-09-23T10:03:34.488Z,16.36
2022-09-23T10:06:17.907Z,16.49
2022-09-23T10:09:14.098Z,16.51
2022-09-23T10:12:05.720Z,16.43
2022-09-23T10:14:40.112Z,16.74
2022-09-23T10:17:20.610Z,16.63
2022-09-23T10:20:00.963Z,16.59
2022-09-23T10:22:39.819Z,16.50
2022-09-23T10:25:20.391Z,16.35
2022-09-23T10:27:55.834Z,16.24
2022-09-23T10:30:30.357Z,16.27
2022-09-23T10:33:27.970Z,16.22
2022-09-23T10:36:02.421Z,16.43
2022-09-23T10:38:36.584Z,16.62
2022-09-23T10:41:37.245Z,16.74
2022-09-23T10:44:45.759Z,17.35
2022-09-23T10:47:32.316Z,17.63
2022-09-23T10:50:23.204Z,17.39
2022-09-23T10:53:11.436Z,17.52
2022-09-23T10:56:05.903Z,17.48
2022-09-23T10:59:03.991Z,17.08
2022-09-23T11:01:51.554Z,17.25
2022-09-23T11:04:43.025Z,17.45
2022-09-23T11:07:24.102Z,17.38
2022-09-23T11:10:45.364Z,17.71
2022-09-23T11:13:34.794Z,17.89
2022-09-23T11:16:22.315Z,17.99
2022-09-23T11:19:21.677Z,17.93
2022-09-23T11:22:08.388Z,18.26
2022-09-23T11:25:02.380Z,18.12
2022-09-23T11:27:54.770Z,18.38
2022-09-23T11:30:37.820Z,18.35
2022-09-23T11:33:27.076Z,18.81
2022-09-23T11:36:08.506Z,19.02
2022-09-23T11:38:46.269Z,18.91
2022-09-23T11:41:30.474Z,18.98
2022-09-23T11:44:13.984Z,19.15
2022-09-23T11:46:55.121Z,19.42
2022-09-23T11:49:33.944Z,19.12
2022-09-23T11:52:14.718Z,18.75
2022-09-23T11:54:57.088Z,18.26
2022-09-23T11:57:46.695Z,17.95
2022-09-23T12:00:24.327Z,18.44
2022-09-23T12:03:09.319Z,18.96
2022-09-23T12:05:48.854Z,18.63
2022-09-23T12:08:29.376Z,18.60
2022-09-23T12:11:09.770Z,19.24
2022-09-23T12:13:51.998Z,18.98
2022-09-23T12:17:07.324Z,19.09
2022-09-23T12:20:13.258Z,19.62
2022-09-23T12:23:01.544Z,19.86
2022-09-23T12:25:46.661Z,20.17
2022-09-23T12:28:24.780Z,20.29
2022-09-23T12:31:01.481Z,20.05
2022-09-23T12:33:37.044Z,20.47
2022-09-23T12:36:13.308Z,20.75
2022-09-23T12:38:51.396Z,20.13
2022-09-23T12:41:35.443Z,20.03
2022-09-23T12:44:30.320Z,20.56
2022-09-23T12:47:38.511Z,20.91
2022-09-23T12:50:50.873Z,21.18
2022-09-23T12:54:23.636Z,21.19
2022-09-23T12:57:03.933Z,21.50
2022-09-23T12:59:57.736Z,21.71
2022-09-23T13:02:36.042Z,22.07
2022-09-23T13:05:37.897Z,21.98
2022-09-23T13:08:17.429Z,22.08
2022-09-23T13:10:56.002Z,22.27
2022-09-23T13:13:37.651Z,21.93
2022-09-23T13:16:14.967Z,22.05
2022-09-23T13:18:54.182Z,22.04
2022-09-23T13:22:01.076Z,21.50
2022-09-23T13:24:42.396Z,21.99
2022-09-23T13:27:21.564Z,22.30
2022-09-23T13:30:01.835Z,22.27
2022-09-23T13:32:47.964Z,21.65
2022-09-23T13:35:32.468Z,21.61
2022-09-23T13:38:19.618Z,21.63
2022-09-23T13:40:55.866Z,21.69
2022-09-23T13:43:36.459Z,21.43
2022-09-23T13:46:18.446Z,20.68
2022-09-23T13:48:55.751Z,20.41
2022-09-23T13:51:34.908Z,20.52
2022-09-23T13:54:28.986Z,20.52
2022-09-23T13:57:03.539Z,20.39
2022-09-23T13:59:39.661Z,20.20
2022-09-23T14:02:16.884Z,19.86
2022-09-23T14:04:51.342Z,19.68
2022-09-23T14:07:26.205Z,19.75
2022-09-23T14:10:00.588Z,19.41
2022-09-23T14:12:39.678Z,19.53
2022-09-23T14:15:16.366Z,19.35
2022-09-23T14:17:55.657Z,18.95
2022-09-23T14:20:30.118Z,18.58
2022-09-23T14:23:11.173Z,18.34
2022-09-23T14:25:46.784Z,18.33
2022-09-23T14:28:22.757Z,18.36
2022-09-23T14:30:58.667Z,18.52
2022-09-23T14:33:35.395Z,18.37
2022-09-23T14:36:33.052Z,18.31
2022-09-23T14:39:09.438Z,18.32
2022-09-23T14:41:47.083Z,18.30
2022-09-23T14:44:23.599Z,18.07
2022-09-23T14:47:00.130Z,17.94
2022-09-23T14:49:36.388Z,18.08
2022-09-23T14:52:12.558Z,17.89
2022-09-23T14:54:47.573Z,17.77
2022-09-23T14:57:30.546Z,17.54
2022-09-23T15:00:15.318Z,17.46
2022-09-23T15:03:00.317Z,17.43
2022-09-23T15:05:46.333Z,17.32
2022-09-23T15:08:23.341Z,17.20
2022-09-23T15:10:58.539Z,17.06
2022-09-23T15:13:34.876Z,16.99
2022-09-23T15:16:09.227Z,16.96
2022-09-23T15:18:46.116Z,16.95
2022-09-23T15:21:23.320Z,17.02
2022-09-23T15:23:58.862Z,16.94
2022-09-23T15:26:46.358Z,16.76
2022-09-23T15:29:21.390Z,16.77
2022-09-23T15:31:55.794Z,16.78
2022-09-23T15:34:31.737Z,16.66
2022-09-23T15:37:10.260Z,16.64
2022-09-23T15:39:45.128Z,16.57
2022-09-23T15:42:19.201Z,16.66
2022-09-23T15:44:53.608Z,16.73
2022-09-23T15:47:27.877Z,16.71
2022-09-23T15:50:02.172Z,16.64
2022-09-23T15:52:38.092Z,16.46
2022-09-23T15:55:17.476Z,16.36
2022-09-23T15:57:51.674Z,16.38
2022-09-23T16:00:26.019Z,16.27
2022-09-23T16:03:01.187Z,16.27
2022-09-23T16:05:38.719Z,16.15
2022-09-23T16:08:15.456Z,16.12
2022-09-23T16:10:49.909Z,16.20
2022-09-23T16:13:24.418Z,16.12
2022-09-23T16:16:08.010Z,15.96
2022-09-23T16:18:43.956Z,15.87
2022-09-23T16:21:20.134Z,15.80
2022-09-23T16:23:57.378Z,15.68
2022-09-23T16:26:34.732Z,15.57
2022-09-23T16:29:11.465Z,15.51
2022-09-23T16:31:45.549Z,15.39
2022-09-23T16:34:20.257Z,15.34
2022-09-23T16:36:54.602Z,15.28
2022-09-23T16:39:30.803Z,15.16
2022-09-23T16:42:06.698Z,15.07
2022-09-23T16:44:42.050Z,14.96
2022-09-23T16:47:16.148Z,14.97
2022-09-23T16:49:50.541Z,14.90
2022-09-23T16:52:24.677Z,14.82
2022-09-23T16:55:00.658Z,14.85
2022-09-23T16:57:34.705Z,14.71
2022-09-23T17:00:31.813Z,14.65
2022-09-23T17:03:24.071Z,14.57
2022-09-23T17:06:00.652Z,14.41
2022-09-23T17:08:36.561Z,14.40
2022-09-23T17:11:14.420Z,14.22
2022-09-23T17:13:49.016Z,14.14
2022-09-23T17:16:25.407Z,14.05
2022-09-23T17:18:59.914Z,13.98
2022-09-23T17:21:34.387Z,13.97
2022-09-23T17:24:08.543Z,13.95
2022-09-23T17:26:49.352Z,13.77
2022-09-23T17:29:29.130Z,13.62
2022-09-23T17:32:05.065Z,13.57
2022-09-23T17:34:39.121Z,13.53
2022-09-23T17:37:13.481Z,13.49
2022-09-23T17:39:47.611Z,13.60
2022-09-23T17:42:23.481Z,13.34
2022-09-23T17:44:58.320Z,13.37
2022-09-23T17:47:33.641Z,13.18
2022-09-23T17:50:09.041Z,13.09
2022-09-23T17:52:43.464Z,13.04
2022-09-23T17:55:18.215Z,13.03
2022-09-23T17:57:54.078Z,13.09
2022-09-23T18:00:28.320Z,13.00
2022-09-23T18:03:04.898Z,12.93
2022-09-23T18:05:38.986Z,12.67
2022-09-23T18:08:13.308Z,12.48
2022-09-23T18:10:47.408Z,12.41
2022-09-23T18:13:23.301Z,12.20
2022-09-23T18:15:57.442Z,12.12
2022-09-23T18:18:32.547Z,12.08
2022-09-23T18:21:07.727Z,11.90
2022-09-23T18:23:42.232Z,12.03
2022-09-23T18:26:16.925Z,11.89
2022-09-23T18:28:57.329Z,11.86
2022-09-23T18:31:34.472Z,11.70
2022-09-23T18:34:12.490Z,11.63
2022-09-23T18:36:46.627Z,11.60
2022-09-23T18:39:21.032Z,11.68
2022-09-23T18:41:55.607Z,11.61
2022-09-23T18:44:31.641Z,11.49
2022-09-23T18:47:05.829Z,11.33
2022-09-23T18:49:58.162Z,11.37
2022-09-23T18:52:32.362Z,11.37
2022-09-23T18:55:07.173Z,11.42
2022-09-23T18:57:41.460Z,11.25
2022-09-23T19:00:17.760Z,11.20
2022-09-23T19:02:53.288Z,11.08
2022-09-23T19:05:27.838Z,11.16
2022-09-23T19:08:02.452Z,11.06
2022-09-23T19:10:36.929Z,10.95
2022-09-23T19:13:10.968Z,11.07
2022-09-23T19:15:47.135Z,11.11
2022-09-23T19:18:21.428Z,11.00
2022-09-23T19:21:02.538Z,10.99
2022-09-23T19:23:41.545Z,10.94
2022-09-23T19:26:18.190Z,10.80
2022-09-23T19:28:54.204Z,10.82
2022-09-23T19:31:33.364Z,10.67
2022-09-23T19:34:12.411Z,10.53
2022-09-23T19:36:48.553Z,10.51
2022-09-23T19:39:24.760Z,10.69
2022-09-23T19:41:59.714Z,10.82
2022-09-23T19:44:34.330Z,10.88
2022-09-23T19:47:15.522Z,10.82
2022-09-23T19:49:49.822Z,10.74
2022-09-23T19:52:24.142Z,10.60
2022-09-23T19:54:58.257Z,10.62
2022-09-23T19:57:33.619Z,10.56
2022-09-23T20:00:08.544Z,10.51
2022-09-23T20:02:47.608Z,10.57
2022-09-23T20:05:22.690Z,10.60
2022-09-23T20:07:59.022Z,10.57
2022-09-23T20:10:33.595Z,10.50
2022-09-23T20:13:08.517Z,10.36
2022-09-23T20:15:45.196Z,10.26
2022-09-23T20:18:20.920Z,10.26
2022-09-23T20:20:55.836Z,10.26
2022-09-23T20:23:30.111Z,10.11
2022-09-23T20:26:23.188Z,10.07
2022-09-23T20:29:01.485Z,9.94
2022-09-23T20:31:35.931Z,9.94
2022-09-23T20:34:12.352Z,10.25
2022-09-23T20:36:46.762Z,10.38
2022-09-23T20:39:21.102Z,10.48
2022-09-23T20:41:55.446Z,10.26
2022-09-23T20:44:30.084Z,10.16
2022-09-23T20:47:04.527Z,10.21
2022-09-23T20:49:43.000Z,10.41
2022-09-23T20:52:20.349Z,10.23
2022-09-23T20:54:54.515Z,10.15
2022-09-23T20:57:31.518Z,9.91
2022-09-23T21:00:07.883Z,9.89
2022-09-23T21:02:44.536Z,9.98
2022-09-23T21:05:19.992Z,9.95
2022-09-23T21:07:54.369Z,9.96
2022-09-23T21:10:28.786Z,9.73
2022-09-23T21:13:04.280Z,9.73
2022-09-23T21:15:38.376Z,10.83
2022-09-23T21:18:16.342Z,12.83
2022-09-23T21:20:57.539Z,11.01
2022-09-23T21:23:33.885Z,10.46
2022-09-23T21:26:10.029Z,10.09
2022-09-23T21:28:46.131Z,9.75
2022-09-23T21:31:25.930Z,9.54
2022-09-23T21:34:02.156Z,9.30
2022-09-23T21:36:39.359Z,9.19
2022-09-23T21:39:14.547Z,12.08
2022-09-23T21:41:48.547Z,13.05
2022-09-23T21:44:22.882Z,12.55
2022-09-23T21:46:57.605Z,11.60
2022-09-23T21:51:42.004Z,10.69
2022-09-23T21:54:17.779Z,10.69
2022-09-23T21:56:51.980Z,9.96
2022-09-23T21:59:26.371Z,9.77
2022-09-23T22:02:00.539Z,9.64
2022-09-23T22:04:35.024Z,9.52
2022-09-23T22:07:10.418Z,9.27
2022-09-23T22:09:47.008Z,9.25
2022-09-23T22:12:20.982Z,9.15
2022-09-23T22:14:55.328Z,9.38
2022-09-23T22:17:30.246Z,9.33
2022-09-23T22:20:04.840Z,9.44
2022-09-23T22:22:40.256Z,9.42
2022-09-23T22:25:15.324Z,9.41
2022-09-23T22:28:03.279Z,8.93
2022-09-23T22:30:57.482Z,8.83
2022-09-23T22:33:31.972Z,8.71
2022-09-23T22:36:06.719Z,8.86
2022-09-23T22:38:43.019Z,8.65
2022-09-23T22:41:20.738Z,8.66
2022-09-23T22:43:55.013Z,8.60
2022-09-23T22:46:30.206Z,8.58
2022-09-23T22:49:04.414Z,8.58
2022-09-23T22:51:39.183Z,8.62
2022-09-23T22:54:15.452Z,8.53
2022-09-23T22:56:50.227Z,8.56
2022-09-23T22:59:24.437Z,8.38
2022-09-23T23:02:00.671Z,8.43
2022-09-23T23:04:36.568Z,8.43
2022-09-23T23:07:10.892Z,8.42
2022-09-23T23:09:46.796Z,8.23
2022-09-23T23:12:22.016Z,8.19
2022-09-23T23:14:56.640Z,8.17
2022-09-23T23:17:31.021Z,8.13
2022-09-23T23:20:06.052Z,8.16
2022-09-23T23:22:40.417Z,8.32
2022-09-23T23:25:16.204Z,8.04
2022-09-23T23:27:50.715Z,8.01
2022-09-23T23:30:25.220Z,8.06
2022-09-23T23:32:59.526Z,7.93
2022-09-23T23:35:33.687Z,7.86
2022-09-23T23:38:07.990Z,7.92
2022-09-23T23:40:44.264Z,8.06
2022-09-23T23:43:19.467Z,7.77
2022-09-23T23:45:53.496Z,7.75
2022-09-23T23:48:29.468Z,7.70
2022-09-23T23:51:05.476Z,7.69
2022-09-23T23:53:41.103Z,7.70
2022-09-23T23:56:19.452Z,7.72
2022-09-23T23:58:57.511Z,7.76
